createdAt,value
2018-10-16T00:00:03.558Z,11.53
2018-10-16T00:02:31.742Z,10.83
2018-10-16T00:04:59.934Z,10.77
2018-10-16T00:07:28.115Z,11.33
2018-10-16T00:09:56.266Z,10.90
2018-10-16T00:12:24.435Z,11.53
2018-10-16T00:14:52.598Z,11.30
2018-10-16T00:17:20.766Z,10.70
2018-10-16T00:19:48.940Z,11.23
2018-10-16T00:22:17.120Z,11.57
2018-10-16T00:24:45.293Z,11.53
2018-10-16T00:27:13.498Z,11.93
2018-10-16T00:29:41.698Z,10.73
2018-10-16T00:32:09.854Z,10.63
2018-10-16T00:34:38.035Z,11.27
2018-10-16T00:37:06.193Z,11.30
2018-10-16T00:39:34.490Z,11.70
2018-10-16T00:42:02.654Z,11.47
2018-10-16T00:44:30.842Z,11.43
2018-10-16T00:46:59.030Z,12.07
2018-10-16T00:49:27.232Z,12.17
2018-10-16T00:51:55.407Z,12.77
2018-10-16T00:54:23.578Z,11.67
2018-10-16T00:56:51.765Z,12.30
2018-10-16T00:59:19.934Z,11.73
2018-10-16T01:01:48.106Z,12.50
2018-10-16T01:04:16.282Z,12.33
2018-10-16T01:06:44.492Z,12.07
2018-10-16T01:09:13.894Z,12.20
2018-10-16T01:11:42.078Z,11.97
2018-10-16T01:14:10.283Z,12.50
2018-10-16T01:16:38.488Z,12.57
2018-10-16T01:19:06.702Z,12.63
2018-10-16T01:21:34.869Z,12.10
2018-10-16T01:24:03.039Z,12.40
2018-10-16T01:26:31.219Z,12.07
2018-10-16T01:28:59.386Z,12.27
2018-10-16T01:31:27.569Z,12.10
2018-10-16T01:33:55.733Z,12.17
2018-10-16T01:36:23.905Z,12.03
2018-10-16T01:38:52.103Z,12.40
2018-10-16T01:41:20.288Z,11.77
2018-10-16T01:43:48.478Z,12.37
2018-10-16T01:46:16.668Z,11.77
2018-10-16T01:48:44.817Z,12.17
2018-10-16T01:51:13.042Z,12.13
2018-10-16T01:53:41.231Z,12.70
2018-10-16T01:56:09.414Z,12.90
2018-10-16T01:58:37.586Z,12.87
2018-10-16T02:01:05.770Z,12.60
2018-10-16T02:03:33.962Z,12.77
2018-10-16T02:06:02.199Z,12.43
2018-10-16T02:08:30.392Z,12.83
2018-10-16T02:10:58.595Z,12.57
2018-10-16T02:13:26.806Z,12.43
2018-10-16T02:15:55.003Z,13.00
2018-10-16T02:18:23.262Z,13.97
2018-10-16T02:20:51.418Z,14.50
2018-10-16T02:23:19.598Z,13.13
2018-10-16T02:25:47.771Z,14.00
2018-10-16T02:28:15.955Z,12.80
2018-10-16T02:30:44.131Z,12.60
2018-10-16T02:33:12.336Z,13.23
2018-10-16T02:35:40.514Z,12.83
2018-10-16T02:38:08.919Z,12.90
2018-10-16T02:40:37.119Z,13.60
2018-10-16T02:43:05.542Z,15.20
2018-10-16T02:45:33.748Z,12.93
2018-10-16T02:48:01.998Z,12.93
2018-10-16T02:50:30.193Z,12.70
2018-10-16T02:52:58.394Z,12.83
2018-10-16T02:55:26.570Z,12.83
2018-10-16T02:57:54.827Z,13.17
2018-10-16T03:00:23.040Z,12.90
2018-10-16T03:02:51.242Z,13.60
2018-10-16T03:05:19.428Z,14.73
2018-10-16T03:07:47.651Z,14.23
2018-10-16T03:10:15.890Z,13.83
2018-10-16T03:12:44.074Z,13.37
2018-10-16T03:15:13.619Z,13.17
2018-10-16T03:17:41.862Z,13.90
2018-10-16T03:20:10.838Z,14.00
2018-10-16T03:22:39.706Z,13.80
2018-10-16T03:25:09.334Z,13.60
2018-10-16T03:27:37.870Z,12.77
2018-10-16T03:30:07.274Z,13.60
2018-10-16T03:32:35.527Z,13.93
2018-10-16T03:35:03.737Z,14.73
2018-10-16T03:37:31.967Z,13.53
2018-10-16T03:40:00.447Z,13.90
2018-10-16T03:42:28.642Z,13.60
2018-10-16T03:44:57.411Z,14.20
2018-10-16T03:47:25.650Z,13.83
2018-10-16T03:49:53.871Z,13.67
2018-10-16T03:52:22.059Z,14.73
2018-10-16T03:54:50.242Z,15.23
2018-10-16T03:57:18.481Z,14.83
2018-10-16T03:59:46.898Z,15.13
2018-10-16T04:02:15.102Z,15.00
2018-10-16T04:04:43.297Z,15.20
2018-10-16T04:07:11.492Z,15.83
2018-10-16T04:09:39.928Z,15.50
2018-10-16T04:12:08.230Z,14.20
2018-10-16T04:14:36.707Z,15.10
2018-10-16T04:17:05.049Z,14.60
2018-10-16T04:19:33.263Z,14.80
2018-10-16T04:22:01.465Z,15.13
2018-10-16T04:24:29.675Z,15.27
2018-10-16T04:26:57.822Z,14.90
2018-10-16T04:29:26.382Z,15.80
2018-10-16T04:31:54.570Z,14.37
2018-10-16T04:34:22.758Z,15.57
2018-10-16T04:36:50.972Z,15.47
2018-10-16T04:39:19.158Z,15.90
2018-10-16T04:41:47.445Z,16.57
2018-10-16T04:44:16.235Z,15.43
2018-10-16T04:46:44.438Z,16.17
2018-10-16T04:49:12.618Z,15.30
2018-10-16T04:51:40.773Z,17.17
2018-10-16T04:54:09.018Z,16.03
2018-10-16T04:56:37.236Z,16.03
2018-10-16T04:59:05.399Z,15.83
2018-10-16T05:01:33.662Z,16.40
2018-10-16T05:04:01.904Z,17.10
2018-10-16T05:06:30.055Z,17.07
2018-10-16T05:08:58.219Z,16.47
2018-10-16T05:11:26.395Z,16.27
2018-10-16T05:13:54.631Z,15.97
2018-10-16T05:16:22.854Z,16.47
2018-10-16T05:18:51.212Z,16.63
2018-10-16T05:21:19.426Z,16.77
2018-10-16T05:23:47.883Z,16.17
2018-10-16T05:26:16.118Z,17.17
2018-10-16T05:28:44.744Z,16.37
2018-10-16T05:31:13.077Z,16.87
2018-10-16T05:33:41.151Z,16.17
2018-10-16T05:36:09.562Z,15.87
2018-10-16T05:38:37.788Z,15.43
2018-10-16T05:41:05.944Z,16.07
2018-10-16T05:43:34.122Z,16.03
2018-10-16T05:46:02.291Z,15.87
2018-10-16T05:48:30.467Z,16.53
2018-10-16T05:50:58.628Z,16.27
2018-10-16T05:53:26.783Z,15.73
2018-10-16T05:55:59.360Z,16.87
2018-10-16T05:58:27.783Z,15.67
2018-10-16T06:00:55.992Z,16.53
2018-10-16T06:03:24.427Z,15.90
2018-10-16T06:05:52.592Z,19.10
2018-10-16T06:08:20.800Z,16.63
2018-10-16T06:10:49.460Z,15.93
2018-10-16T06:13:17.695Z,17.63
2018-10-16T06:15:45.850Z,16.77
2018-10-16T06:18:14.037Z,16.90
2018-10-16T06:20:42.288Z,16.90
2018-10-16T06:23:10.755Z,15.40
2018-10-16T06:25:38.930Z,16.73
2018-10-16T06:28:14.429Z,16.37
2018-10-16T06:30:42.624Z,16.50
2018-10-16T06:33:11.223Z,16.30
2018-10-16T06:35:39.414Z,16.73
2018-10-16T06:38:07.661Z,17.20
2018-10-16T06:40:35.900Z,17.77
2018-10-16T06:43:04.399Z,17.60
2018-10-16T06:45:32.593Z,17.50
2018-10-16T06:48:00.886Z,18.83
2018-10-16T06:50:28.917Z,16.63
2018-10-16T06:52:57.092Z,17.03
2018-10-16T06:55:25.269Z,17.40
2018-10-16T06:57:53.442Z,16.80
2018-10-16T07:00:21.697Z,16.37
2018-10-16T07:02:49.790Z,16.93
2018-10-16T07:05:17.948Z,16.93
2018-10-16T07:07:46.197Z,16.00
2018-10-16T07:10:14.415Z,17.37
2018-10-16T07:12:42.569Z,18.13
2018-10-16T07:15:10.744Z,17.37
2018-10-16T07:17:38.943Z,16.80
2018-10-16T07:20:07.725Z,18.03
2018-10-16T07:22:35.893Z,17.93
2018-10-16T07:25:04.522Z,15.53
2018-10-16T07:27:32.712Z,16.43
2018-10-16T07:30:01.202Z,16.90
2018-10-16T07:32:29.296Z,20.40
2018-10-16T07:34:57.482Z,17.13
2018-10-16T07:37:25.867Z,17.23
2018-10-16T07:39:54.023Z,16.63
2018-10-16T07:42:22.295Z,17.23
2018-10-16T07:44:50.733Z,17.50
2018-10-16T07:47:18.926Z,17.77
2018-10-16T07:49:47.110Z,16.87
2018-10-16T07:52:15.749Z,16.33
2018-10-16T07:54:44.024Z,16.37
2018-10-16T07:57:12.286Z,18.00
2018-10-16T07:59:40.805Z,17.83
2018-10-16T08:02:09.021Z,17.00
2018-10-16T08:04:37.194Z,18.13
2018-10-16T08:07:05.447Z,17.93
2018-10-16T08:09:33.623Z,17.80
2018-10-16T08:12:01.826Z,17.47
2018-10-16T08:14:30.007Z,17.50
2018-10-16T08:16:58.275Z,18.13
2018-10-16T08:19:26.443Z,17.77
2018-10-16T08:21:54.611Z,17.30
2018-10-16T08:24:22.794Z,18.00
2018-10-16T08:26:51.017Z,19.03
2018-10-16T08:29:19.238Z,18.00
2018-10-16T08:31:47.426Z,17.40
2018-10-16T08:34:15.647Z,19.03
2018-10-16T08:36:43.887Z,19.07
2018-10-16T08:39:14.754Z,19.07
2018-10-16T08:42:52.559Z,17.77
2018-10-16T08:45:32.132Z,18.13
2018-10-16T08:48:11.782Z,18.87
2018-10-16T08:50:51.842Z,20.00
2018-10-16T08:53:20.008Z,18.97
2018-10-16T08:55:48.523Z,18.77
2018-10-16T08:58:16.722Z,20.00
2018-10-16T09:00:44.898Z,19.10
2018-10-16T09:03:13.075Z,19.93
2018-10-16T09:05:41.240Z,20.40
2018-10-16T09:08:09.405Z,20.03
2018-10-16T09:10:37.779Z,19.53
2018-10-16T09:13:06.065Z,18.80
2018-10-16T09:15:34.463Z,18.87
2018-10-16T09:18:02.624Z,18.57
2018-10-16T09:20:31.362Z,19.27
2018-10-16T09:22:59.560Z,18.97
2018-10-16T09:25:27.725Z,18.67
2018-10-16T09:27:55.914Z,18.97
2018-10-16T09:30:24.093Z,19.10
2018-10-16T09:32:52.260Z,19.50
2018-10-16T09:35:20.478Z,21.10
2018-10-16T09:37:48.745Z,20.07
2018-10-16T09:40:16.938Z,20.47
2018-10-16T09:42:45.146Z,19.60
2018-10-16T09:45:13.344Z,19.20
2018-10-16T09:47:41.542Z,20.07
2018-10-16T09:50:10.326Z,20.77
2018-10-16T09:52:38.550Z,20.13
2018-10-16T09:55:07.703Z,20.97
2018-10-16T09:57:35.866Z,20.87
2018-10-16T10:00:05.646Z,22.27
2018-10-16T10:02:33.820Z,22.27
2018-10-16T10:05:02.008Z,20.87
2018-10-16T10:07:30.179Z,21.63
2018-10-16T10:09:59.354Z,21.63
2018-10-16T10:12:27.527Z,23.30
2018-10-16T10:14:55.742Z,22.43
2018-10-16T10:17:23.907Z,21.33
2018-10-16T10:19:52.073Z,21.47
2018-10-16T10:22:20.583Z,23.53
2018-10-16T10:24:48.748Z,20.37
2018-10-16T10:27:16.942Z,20.13
2018-10-16T10:29:45.194Z,21.17
2018-10-16T10:32:13.363Z,22.03
2018-10-16T10:34:41.551Z,20.43
2018-10-16T10:37:09.877Z,23.13
2018-10-16T10:39:38.139Z,21.57
2018-10-16T10:42:06.836Z,22.47
2018-10-16T10:44:35.056Z,21.43
2018-10-16T10:47:03.238Z,20.87
2018-10-16T10:49:31.482Z,21.73
2018-10-16T10:51:59.646Z,21.83
2018-10-16T10:54:27.825Z,22.20
2018-10-16T10:56:56.141Z,22.10
2018-10-16T10:59:24.187Z,22.30
2018-10-16T11:01:52.394Z,24.03
2018-10-16T11:04:20.602Z,22.07
2018-10-16T11:06:48.887Z,23.27
2018-10-16T11:09:17.190Z,22.27
2018-10-16T11:11:51.194Z,22.87
2018-10-16T11:14:19.367Z,21.20
2018-10-16T11:16:47.565Z,23.67
2018-10-16T11:19:16.103Z,23.70
2018-10-16T11:21:44.271Z,22.40
2018-10-16T11:24:12.476Z,22.20
2018-10-16T11:26:40.672Z,21.50
2018-10-16T11:29:08.815Z,20.63
2018-10-16T11:31:37.259Z,20.20
2018-10-16T11:34:06.154Z,21.97
2018-10-16T11:36:34.312Z,21.23
2018-10-16T11:39:02.891Z,21.43
2018-10-16T11:41:31.027Z,20.33
2018-10-16T11:43:59.231Z,21.30
2018-10-16T11:46:27.423Z,20.87
2018-10-16T11:48:55.604Z,21.87
2018-10-16T11:51:23.755Z,22.80
2018-10-16T11:53:51.963Z,22.23
2018-10-16T11:56:20.671Z,23.30
2018-10-16T11:58:48.989Z,22.90
2018-10-16T12:01:17.276Z,22.90
2018-10-16T12:03:45.425Z,22.77
2018-10-16T12:06:13.661Z,21.63
2018-10-16T12:08:41.754Z,22.80
2018-10-16T12:11:09.981Z,20.27
2018-10-16T12:13:38.116Z,21.67
2018-10-16T12:16:06.287Z,21.00
2018-10-16T12:18:40.050Z,22.17
2018-10-16T12:21:14.981Z,21.00
2018-10-16T12:23:43.070Z,21.33
2018-10-16T12:26:11.215Z,22.73
2018-10-16T12:28:39.403Z,22.20
2018-10-16T12:31:07.712Z,22.40
2018-10-16T12:33:35.954Z,22.87
2018-10-16T12:36:04.163Z,21.57
2018-10-16T12:38:32.356Z,21.70
2018-10-16T12:41:00.532Z,22.97
2018-10-16T12:43:28.915Z,23.93
2018-10-16T12:45:57.448Z,23.33
2018-10-16T12:48:25.643Z,23.60
2018-10-16T12:50:53.851Z,24.13
2018-10-16T12:53:22.099Z,23.93
2018-10-16T12:55:50.315Z,23.40
2018-10-16T12:58:18.522Z,23.87
2018-10-16T13:00:46.803Z,23.93
2018-10-16T13:03:15.158Z,24.97
2018-10-16T13:05:43.305Z,24.10
2018-10-16T13:08:11.564Z,23.20
2018-10-16T13:10:39.887Z,25.17
2018-10-16T13:13:08.060Z,24.63
2018-10-16T13:15:36.234Z,24.37
2018-10-16T13:18:04.768Z,25.30
2018-10-16T13:20:32.998Z,23.50
2018-10-16T13:23:01.221Z,23.97
2018-10-16T13:25:29.421Z,22.90
2018-10-16T13:27:57.686Z,23.47
2018-10-16T13:30:25.830Z,23.87
2018-10-16T13:32:54.012Z,23.93
2018-10-16T13:35:23.012Z,21.87
2018-10-16T13:37:51.229Z,23.47
2018-10-16T13:40:19.430Z,23.63
2018-10-16T13:42:47.642Z,23.63
2018-10-16T13:45:16.674Z,23.77
2018-10-16T13:47:44.862Z,24.27
2018-10-16T13:50:14.068Z,25.83
2018-10-16T13:52:42.390Z,23.37
2018-10-16T13:55:11.238Z,23.80
2018-10-16T13:57:39.607Z,25.20
2018-10-16T14:00:12.447Z,24.20
2018-10-16T14:02:41.261Z,24.73
2018-10-16T14:05:09.428Z,25.63
2018-10-16T14:07:37.646Z,25.37
2018-10-16T14:10:07.883Z,25.60
2018-10-16T14:12:36.115Z,23.87
2018-10-16T14:15:04.790Z,23.90
2018-10-16T14:17:32.967Z,24.17
2018-10-16T14:20:01.209Z,25.33
2018-10-16T14:22:29.402Z,23.60
2018-10-16T14:24:57.575Z,24.30
2018-10-16T14:27:25.798Z,24.83
2018-10-16T14:29:53.987Z,23.67
2018-10-16T14:32:22.806Z,24.70
2018-10-16T14:34:50.827Z,24.97
2018-10-16T14:37:18.989Z,25.40
2018-10-16T14:39:47.138Z,24.00
2018-10-16T14:42:15.299Z,23.50
2018-10-16T14:44:43.480Z,24.13
2018-10-16T14:47:11.689Z,25.87
2018-10-16T14:49:39.932Z,22.67
2018-10-16T14:52:08.273Z,23.07
2018-10-16T14:54:36.304Z,24.10
2018-10-16T14:57:04.583Z,23.93
2018-10-16T14:59:32.722Z,23.17
2018-10-16T15:02:00.949Z,24.13
2018-10-16T15:04:29.162Z,23.70
2018-10-16T15:06:57.354Z,22.63
2018-10-16T15:09:25.582Z,23.17
2018-10-16T15:11:53.761Z,23.93
2018-10-16T15:14:21.978Z,25.00
2018-10-16T15:16:50.155Z,24.17
2018-10-16T15:19:18.360Z,23.50
2018-10-16T15:21:46.544Z,24.67
2018-10-16T15:24:14.782Z,23.47
2018-10-16T15:26:42.968Z,24.93
2018-10-16T15:29:11.173Z,23.67
2018-10-16T15:31:39.346Z,23.80
2018-10-16T15:34:07.565Z,24.13
2018-10-16T15:36:35.706Z,24.87
2018-10-16T15:39:05.070Z,25.27
2018-10-16T15:41:33.252Z,24.77
2018-10-16T15:44:01.760Z,23.53
2018-10-16T15:46:29.927Z,23.33
2018-10-16T15:48:58.346Z,23.93
2018-10-16T15:51:26.490Z,24.83
2018-10-16T15:53:54.711Z,24.50
2018-10-16T15:56:22.926Z,24.60
2018-10-16T15:58:51.115Z,25.10
2018-10-16T16:01:19.515Z,25.17
2018-10-16T16:03:47.664Z,24.47
2018-10-16T16:06:15.854Z,25.27
2018-10-16T16:08:44.030Z,24.97
2018-10-16T16:11:12.206Z,22.83
2018-10-16T16:13:40.391Z,25.33
2018-10-16T16:16:08.587Z,24.20
2018-10-16T16:18:36.783Z,24.33
2018-10-16T16:21:05.163Z,24.00
2018-10-16T16:23:33.343Z,22.60
2018-10-16T16:26:01.630Z,25.00
2018-10-16T16:28:29.717Z,24.43
2018-10-16T16:30:57.914Z,23.73
2018-10-16T16:33:26.135Z,24.53
2018-10-16T16:35:54.347Z,23.80
2018-10-16T16:38:22.484Z,23.60
2018-10-16T16:40:50.677Z,27.93
2018-10-16T16:43:18.862Z,25.00
2018-10-16T16:45:47.049Z,24.83
2018-10-16T16:48:15.222Z,23.40
2018-10-16T16:50:43.380Z,24.03
2018-10-16T16:53:11.603Z,23.47
2018-10-16T16:55:39.728Z,24.30
2018-10-16T16:58:08.000Z,23.97
2018-10-16T17:00:36.103Z,24.50
2018-10-16T17:03:04.255Z,24.77
2018-10-16T17:05:32.427Z,24.03
2018-10-16T17:08:00.638Z,24.93
2018-10-16T17:10:28.820Z,25.17
2018-10-16T17:12:57.000Z,23.07
2018-10-16T17:15:25.219Z,25.33
2018-10-16T17:17:53.459Z,25.93
2018-10-16T17:20:21.567Z,24.37
2018-10-16T17:22:49.748Z,24.27
2018-10-16T17:25:18.067Z,24.70
2018-10-16T17:27:46.188Z,23.00
2018-10-16T17:30:15.886Z,24.87
2018-10-16T17:32:44.463Z,24.67
2018-10-16T17:35:13.055Z,24.73
2018-10-16T17:37:41.638Z,24.43
2018-10-16T17:40:11.868Z,25.07
2018-10-16T17:42:40.051Z,24.70
2018-10-16T17:45:10.076Z,24.23
2018-10-16T17:47:38.328Z,25.70
2018-10-16T17:50:08.589Z,25.47
2018-10-16T17:52:36.775Z,25.27
2018-10-16T17:55:05.610Z,26.03
2018-10-16T17:57:33.892Z,24.83
2018-10-16T18:00:02.004Z,24.13
2018-10-16T18:02:30.203Z,24.77
2018-10-16T18:04:58.391Z,25.63
2018-10-16T18:07:26.638Z,24.37
2018-10-16T18:09:55.014Z,26.77
2018-10-16T18:12:23.210Z,25.70
2018-10-16T18:14:51.372Z,25.50
2018-10-16T18:17:19.524Z,25.00
2018-10-16T18:19:47.711Z,25.20
2018-10-16T18:22:15.881Z,26.00
2018-10-16T18:24:44.059Z,26.17
2018-10-16T18:27:12.312Z,26.00
2018-10-16T18:29:40.442Z,26.27
2018-10-16T18:32:08.656Z,26.03
2018-10-16T18:34:36.861Z,26.03
2018-10-16T18:37:05.294Z,26.43
2018-10-16T18:39:33.601Z,26.77
2018-10-16T18:42:01.764Z,27.70
2018-10-16T18:44:29.982Z,26.30
2018-10-16T18:46:58.171Z,25.90
2018-10-16T18:49:26.357Z,25.63
2018-10-16T18:51:54.743Z,24.97
2018-10-16T18:54:23.162Z,27.97
2018-10-16T18:56:51.330Z,27.03
2018-10-16T18:59:19.556Z,27.27
2018-10-16T19:01:47.789Z,26.83
2018-10-16T19:04:15.972Z,26.27
2018-10-16T19:06:44.339Z,27.37
2018-10-16T19:09:13.137Z,26.87
2018-10-16T19:11:41.851Z,27.80
2018-10-16T19:14:10.279Z,27.43
2018-10-16T19:16:38.707Z,27.07
2018-10-16T19:19:06.903Z,27.40
2018-10-16T19:21:35.263Z,27.13
2018-10-16T19:24:03.461Z,27.23
2018-10-16T19:26:31.632Z,26.97
2018-10-16T19:29:00.040Z,26.83
2018-10-16T19:31:28.563Z,28.17
2018-10-16T19:33:56.776Z,28.07
2018-10-16T19:36:25.065Z,28.63
2018-10-16T19:38:53.256Z,28.63
2018-10-16T19:41:21.463Z,27.70
2018-10-16T19:43:49.645Z,27.40
2018-10-16T19:46:17.818Z,27.53
2018-10-16T19:48:45.983Z,28.57
2018-10-16T19:51:14.229Z,29.50
2018-10-16T19:53:42.327Z,28.83
2018-10-16T19:56:10.570Z,28.43
2018-10-16T19:58:39.151Z,29.20
2018-10-16T20:01:07.309Z,28.87
2018-10-16T20:03:35.460Z,28.50
2018-10-16T20:06:03.642Z,27.37
2018-10-16T20:08:31.814Z,28.33
2018-10-16T20:10:59.950Z,27.50
2018-10-16T20:13:28.174Z,27.80
2018-10-16T20:15:56.342Z,28.63
2018-10-16T20:18:24.517Z,28.37
2018-10-16T20:20:52.670Z,28.30
2018-10-16T20:23:20.831Z,28.23
2018-10-16T20:25:49.010Z,28.97
2018-10-16T20:28:17.150Z,27.47
2018-10-16T20:30:45.531Z,29.40
2018-10-16T20:33:13.724Z,27.80
2018-10-16T20:35:41.946Z,28.63
2018-10-16T20:38:10.119Z,27.13
2018-10-16T20:40:38.295Z,28.37
2018-10-16T20:43:06.560Z,27.27
2018-10-16T20:45:34.683Z,27.90
2018-10-16T20:48:02.823Z,27.20
2018-10-16T20:50:31.028Z,28.40
2018-10-16T20:52:59.182Z,27.70
2018-10-16T20:55:27.356Z,28.03
2018-10-16T20:57:55.574Z,28.63
2018-10-16T21:00:24.002Z,27.20
2018-10-16T21:02:52.187Z,29.03
2018-10-16T21:05:20.527Z,27.70
2018-10-16T21:07:48.528Z,28.47
2018-10-16T21:10:16.691Z,29.13
2018-10-16T21:12:44.864Z,28.03
2018-10-16T21:15:13.013Z,27.30
2018-10-16T21:17:41.178Z,26.60
2018-10-16T21:20:09.937Z,28.17
2018-10-16T21:22:38.088Z,27.77
2018-10-16T21:25:06.685Z,28.70
2018-10-16T21:27:34.862Z,28.70
2018-10-16T21:30:03.017Z,28.37
2018-10-16T21:32:31.178Z,28.03
2018-10-16T21:34:59.378Z,27.90
2018-10-16T21:37:27.522Z,28.20
2018-10-16T21:39:55.766Z,29.40
2018-10-16T21:42:23.929Z,28.80
2018-10-16T21:44:52.095Z,28.23
2018-10-16T21:47:20.322Z,28.47
2018-10-16T21:49:48.825Z,28.93
2018-10-16T21:52:17.026Z,28.00
2018-10-16T21:54:45.369Z,28.13
2018-10-16T21:57:13.607Z,26.17
2018-10-16T21:59:41.807Z,27.87
2018-10-16T22:02:15.434Z,27.43
2018-10-16T22:04:43.586Z,27.30
2018-10-16T22:07:11.783Z,27.93
2018-10-16T22:09:39.951Z,27.77
2018-10-16T22:12:08.130Z,26.23
2018-10-16T22:14:36.326Z,26.93
2018-10-16T22:17:04.718Z,27.87
2018-10-16T22:19:33.041Z,26.40
2018-10-16T22:22:01.237Z,26.83
2018-10-16T22:24:29.382Z,26.60
2018-10-16T22:26:57.559Z,28.43
2018-10-16T22:29:25.762Z,27.93
2018-10-16T22:31:54.105Z,28.13
2018-10-16T22:34:22.314Z,27.30
2018-10-16T22:36:50.460Z,27.33
2018-10-16T22:39:18.733Z,27.50
2018-10-16T22:41:46.882Z,27.23
2018-10-16T22:44:15.070Z,28.00
2018-10-16T22:46:43.243Z,28.77
2018-10-16T22:49:11.506Z,27.07
2018-10-16T22:51:39.634Z,28.23
2018-10-16T22:54:07.827Z,29.07
2018-10-16T22:56:36.026Z,28.07
2018-10-16T22:59:04.207Z,29.77
2018-10-16T23:01:32.410Z,27.97
2018-10-16T23:04:00.602Z,27.27
2018-10-16T23:06:28.767Z,27.20
2018-10-16T23:08:56.942Z,27.37
2018-10-16T23:11:25.144Z,28.50
2018-10-16T23:13:53.320Z,27.00
2018-10-16T23:16:21.478Z,27.33
2018-10-16T23:18:49.629Z,25.87
2018-10-16T23:21:17.841Z,26.87
2018-10-16T23:23:45.977Z,26.30
2018-10-16T23:26:14.198Z,26.63
2018-10-16T23:28:42.338Z,27.17
2018-10-16T23:31:10.634Z,26.03
2018-10-16T23:33:38.719Z,26.73
2018-10-16T23:36:06.894Z,26.50
2018-10-16T23:38:35.129Z,26.50
2018-10-16T23:41:03.379Z,26.43
2018-10-16T23:43:31.573Z,25.63
2018-10-16T23:45:59.754Z,25.40
2018-10-16T23:48:28.434Z,25.70
2018-10-16T23:50:56.582Z,24.37
2018-10-16T23:53:24.756Z,25.40
2018-10-16T23:55:52.933Z,26.47
2018-10-16T23:58:21.089Z,24.87
